Time;durP1;ratioP1;P1;durP2;ratioP2;P2;SDS_P1;SDS_P2;PMS_P1;PMS_P2;Temp;Humidity;BMP_temperature;BMP_pressure;BME280_temperature;BME280_humidity;BME280_pressure;Samples;Min_cycle;Max_cycle;Signal;HPM_P1;HPM_P2
2022/10/15 00:01:10;;;;;;;68.37;9.53;;;14.70;99.90;;;;;;5021475;28;20405;-83
2022/10/15 00:03:40;;;;;;;68.20;9.57;;;14.70;99.90;;;;;;5036333;28;20425;-83
2022/10/15 00:06:20;;;;;;;67.53;9.30;;;14.70;99.90;;;;;;5021295;28;20416;-83
2022/10/15 00:08:47;;;;;;;67.17;9.40;;;14.70;99.90;;;;;;5019901;28;20448;-83
2022/10/15 00:11:21;;;;;;;68.57;9.23;;;14.70;99.90;;;;;;5021691;28;20472;-83
2022/10/15 00:13:48;;;;;;;68.30;10.30;;;14.70;99.90;;;;;;5021220;28;20966;-83
2022/10/15 00:16:16;;;;;;;70.10;9.70;;;14.70;99.90;;;;;;5019997;28;20416;-83
2022/10/15 00:18:42;;;;;;;68.43;10.77;;;14.70;99.90;;;;;;5019908;28;20471;-83
2022/10/15 00:21:10;;;;;;;69.17;10.80;;;14.70;99.90;;;;;;5021224;28;20410;-83
2022/10/15 00:23:36;;;;;;;68.17;11.57;;;14.70;99.90;;;;;;5021108;28;20405;-83
2022/10/15 00:26:11;;;;;;;67.90;10.40;;;14.70;99.90;;;;;;5019477;28;20420;-83
2022/10/15 00:28:37;;;;;;;67.83;9.70;;;14.70;99.90;;;;;;5019131;28;20440;-83
2022/10/15 00:31:08;;;;;;;67.37;9.30;;;14.70;99.90;;;;;;5021040;28;20421;-83
2022/10/15 00:33:34;;;;;;;69.30;11.43;;;14.70;99.90;;;;;;5020520;28;20425;-83
2022/10/15 00:36:07;;;;;;;69.83;13.00;;;14.70;99.90;;;;;;5020576;28;20398;-83
2022/10/15 00:38:34;;;;;;;73.87;12.70;;;14.60;99.90;;;;;;5020969;28;21006;-83
2022/10/15 00:41:00;;;;;;;69.97;14.00;;;14.60;99.90;;;;;;5019383;28;20867;-83
2022/10/15 00:43:38;;;;;;;69.27;12.20;;;14.50;99.90;;;;;;5020330;28;20444;-84
2022/10/15 00:46:06;;;;;;;72.03;11.97;;;14.50;99.90;;;;;;5020447;28;20756;-85
2022/10/15 00:48:32;;;;;;;68.93;9.40;;;14.50;99.90;;;;;;5019379;28;20429;-83
2022/10/15 00:51:01;;;;;;;68.50;10.20;;;14.50;99.90;;;;;;5020813;28;20902;-83
2022/10/15 00:53:26;;;;;;;70.00;10.20;;;14.50;99.90;;;;;;5020790;28;20517;-83
2022/10/15 00:55:52;;;;;;;69.50;8.70;;;14.50;99.90;;;;;;5019442;28;20417;-83
2022/10/15 00:58:26;;;;;;;66.50;8.37;;;14.50;99.90;;;;;;5035981;28;20185;-83
2022/10/15 01:00:53;;;;;;;67.47;8.10;;;14.40;99.90;;;;;;5035334;28;20830;-83
2022/10/15 01:03:19;;;;;;;66.97;8.67;;;14.40;99.90;;;;;;5020116;28;20401;-83
2022/10/15 01:05:48;;;;;;;66.90;8.47;;;14.30;99.90;;;;;;5020236;28;20409;-83
2022/10/15 01:08:13;;;;;;;67.43;9.17;;;14.30;99.90;;;;;;5018324;28;20440;-83
2022/10/15 01:10:51;;;;;;;67.70;9.60;;;14.30;99.90;;;;;;5020047;28;20999;-83
2022/10/15 01:13:40;;;;;;;70.70;10.03;;;14.20;99.90;;;;;;5019369;28;20188;-83
2022/10/15 01:16:18;;;;;;;67.37;10.43;;;14.10;99.90;;;;;;5020695;28;20396;-83
2022/10/15 01:19:00;;;;;;;67.60;9.37;;;14.10;99.90;;;;;;5019684;28;20449;-83
2022/10/15 01:21:45;;;;;;;68.20;9.80;;;14.00;99.90;;;;;;5035845;28;20489;-83
2022/10/15 01:24:29;;;;;;;67.33;9.70;;;14.00;99.90;;;;;;5035172;28;20771;-83
2022/10/15 01:27:36;;;;;;;68.57;10.30;;;14.00;99.90;;;;;;5018929;28;20408;-83
2022/10/15 01:30:25;;;;;;;73.30;9.00;;;13.90;99.90;;;;;;5018959;28;20530;-83
2022/10/15 01:33:08;;;;;;;67.50;10.80;;;13.80;99.90;;;;;;5019375;28;20435;-83
2022/10/15 01:35:38;;;;;;;67.33;10.03;;;13.80;99.90;;;;;;5019988;28;20381;-83
2022/10/15 01:38:25;;;;;;;69.80;8.60;;;13.70;99.90;;;;;;5018261;28;20429;-83
2022/10/15 01:40:59;;;;;;;68.40;9.33;;;13.60;99.90;;;;;;5019570;28;20385;-84
2022/10/15 01:43:44;;;;;;;67.33;9.00;;;13.70;99.90;;;;;;5034150;28;20404;-83
2022/10/15 01:46:16;;;;;;;68.50;9.40;;;13.70;99.90;;;;;;5019546;28;20741;-84
2022/10/15 01:48:42;;;;;;;69.40;10.60;;;13.60;99.90;;;;;;5019088;28;20413;-83
2022/10/15 01:51:11;;;;;;;66.27;8.93;;;13.60;99.90;;;;;;5018245;28;20416;-83
2022/10/15 01:53:38;;;;;;;69.03;9.77;;;13.60;99.90;;;;;;5019646;28;20445;-83
2022/10/15 01:56:08;;;;;;;67.67;8.93;;;13.60;99.90;;;;;;5018654;28;20488;-83
2022/10/15 01:58:39;;;;;;;68.97;10.00;;;13.60;99.90;;;;;;5019132;28;20417;-83
2022/10/15 02:01:05;;;;;;;68.70;9.67;;;13.50;99.90;;;;;;5019650;28;20774;-83
2022/10/15 02:03:31;;;;;;;69.30;8.90;;;13.60;99.90;;;;;;5019308;28;20400;-83
2022/10/15 02:06:08;;;;;;;68.40;10.40;;;13.60;99.90;;;;;;5018965;28;20166;-83
2022/10/15 02:08:47;;;;;;;67.57;10.10;;;13.50;99.90;;;;;;5019472;28;20185;-83
2022/10/15 02:11:15;;;;;;;68.47;10.53;;;13.50;99.90;;;;;;5017672;28;20471;-83
2022/10/15 02:14:01;;;;;;;68.60;12.87;;;13.50;99.90;;;;;;5017607;28;20452;-83
2022/10/15 02:16:32;;;;;;;70.10;15.67;;;13.50;99.90;;;;;;5017854;28;20462;-83
2022/10/15 02:19:10;;;;;;;69.40;15.83;;;13.50;99.90;;;;;;5017610;28;20435;-84
2022/10/15 02:21:46;;;;;;;70.95;14.10;;;13.50;99.90;;;;;;5018487;28;20429;-83
2022/10/15 02:24:24;;;;;;;71.27;15.57;;;13.50;99.90;;;;;;5018821;28;20216;-84
2022/10/15 02:26:52;;;;;;;72.07;14.93;;;13.50;99.90;;;;;;5017575;28;20429;-84
2022/10/15 02:29:21;;;;;;;68.27;11.97;;;13.50;99.90;;;;;;5016747;28;20429;-83
2022/10/15 02:31:48;;;;;;;68.57;11.77;;;13.60;99.90;;;;;;5019208;28;20431;-83
2022/10/15 02:34:21;;;;;;;69.90;12.60;;;13.60;99.90;;;;;;5018436;28;20449;-83
2022/10/15 02:36:48;;;;;;;69.80;12.83;;;13.60;99.90;;;;;;5018085;28;20432;-83
2022/10/15 02:39:18;;;;;;;68.57;10.50;;;13.70;99.90;;;;;;5017323;28;20436;-83
2022/10/15 02:41:45;;;;;;;69.17;11.23;;;13.70;99.90;;;;;;5017407;28;20888;-83
2022/10/15 02:44:11;;;;;;;69.60;12.47;;;13.70;99.90;;;;;;5018367;28;20440;-83
2022/10/15 02:46:37;;;;;;;69.67;11.87;;;13.70;99.90;;;;;;5016994;28;20408;-83
2022/10/15 02:49:02;;;;;;;73.17;15.53;;;13.80;99.90;;;;;;5018343;28;20673;-83
2022/10/15 02:51:32;;;;;;;70.67;12.27;;;13.70;99.90;;;;;;5018457;28;20169;-83
2022/10/15 02:53:59;;;;;;;71.77;13.40;;;13.80;99.90;;;;;;5018231;28;20221;-84
2022/10/15 02:56:25;;;;;;;73.20;14.07;;;13.80;99.90;;;;;;5017603;28;20489;-84
2022/10/15 02:58:51;;;;;;;70.23;13.77;;;13.80;99.90;;;;;;5018318;28;20502;-83
2022/10/15 03:01:16;;;;;;;70.43;12.80;;;13.80;99.90;;;;;;5016503;28;20408;-84
2022/10/15 03:03:42;;;;;;;70.83;14.17;;;13.80;99.90;;;;;;5017238;28;20253;-83
2022/10/15 03:06:08;;;;;;;72.93;14.03;;;13.80;99.90;;;;;;5017981;28;20173;-83
2022/10/15 03:08:34;;;;;;;71.67;13.50;;;13.80;99.90;;;;;;5018835;28;20190;-83
2022/10/15 03:11:00;;;;;;;71.00;11.60;;;13.80;99.90;;;;;;5018992;28;20425;-83
2022/10/15 03:13:27;;;;;;;70.63;14.37;;;13.80;99.90;;;;;;5018366;28;20177;-83
2022/10/15 03:15:52;;;;;;;71.20;16.10;;;13.80;99.90;;;;;;5017372;28;20408;-83
2022/10/15 03:18:18;;;;;;;69.77;13.53;;;13.80;99.90;;;;;;5016697;28;20433;-83
2022/10/15 03:20:51;;;;;;;70.17;12.00;;;13.80;99.90;;;;;;5018207;28;20177;-84
2022/10/15 03:23:17;;;;;;;72.20;15.17;;;13.80;99.90;;;;;;5017983;28;20146;-83
2022/10/15 03:25:42;;;;;;;71.80;15.70;;;13.80;99.90;;;;;;5017788;28;20435;-83
2022/10/15 03:28:08;;;;;;;71.60;16.40;;;13.80;99.90;;;;;;5018220;28;20706;-83
2022/10/15 03:30:34;;;;;;;71.50;14.93;;;13.80;99.90;;;;;;5016251;28;20678;-84
2022/10/15 03:32:59;;;;;;;72.30;17.23;;;13.80;99.90;;;;;;5017865;28;20241;-83
2022/10/15 03:35:25;;;;;;;72.33;18.50;;;13.80;99.90;;;;;;5018023;28;20173;-83
2022/10/15 03:37:50;;;;;;;73.53;21.33;;;13.80;99.90;;;;;;5018226;28;20162;-83
2022/10/15 03:40:17;;;;;;;73.20;21.87;;;13.80;99.90;;;;;;5017624;28;20185;-83
2022/10/15 03:42:42;;;;;;;73.57;20.30;;;13.80;99.90;;;;;;5016375;28;20170;-84
2022/10/15 03:45:08;;;;;;;74.43;23.93;;;13.80;99.90;;;;;;5018148;28;21014;-83
2022/10/15 03:47:34;;;;;;;73.30;19.87;;;13.80;99.90;;;;;;5017823;28;20166;-83
2022/10/15 03:50:00;;;;;;;72.27;18.50;;;13.80;99.90;;;;;;5016264;28;20432;-83
2022/10/15 03:52:26;;;;;;;71.50;18.37;;;13.80;99.90;;;;;;5016854;28;20408;-83
2022/10/15 03:54:51;;;;;;;73.90;16.10;;;13.90;99.90;;;;;;5018043;28;20189;-83
2022/10/15 03:57:17;;;;;;;71.47;17.20;;;13.90;99.90;;;;;;5017693;28;20653;-83
2022/10/15 03:59:42;;;;;;;74.10;15.70;;;13.90;99.90;;;;;;5017669;28;20605;-83
2022/10/15 04:02:08;;;;;;;72.20;16.10;;;13.90;99.90;;;;;;5016546;28;20213;-83
2022/10/15 04:04:34;;;;;;;73.27;18.70;;;13.90;99.90;;;;;;5016547;28;20181;-84
2022/10/15 04:06:59;;;;;;;72.37;17.70;;;13.90;99.90;;;;;;5017371;28;20175;-83
2022/10/15 04:09:25;;;;;;;72.30;20.30;;;13.90;99.90;;;;;;5017287;28;20193;-83
2022/10/15 04:11:51;;;;;;;72.37;17.97;;;13.90;99.90;;;;;;5017232;28;20213;-83
2022/10/15 04:14:18;;;;;;;71.57;19.30;;;13.90;99.90;;;;;;5017285;28;20662;-83
2022/10/15 04:16:43;;;;;;;75.27;20.13;;;13.90;99.90;;;;;;5017362;28;20622;-83
2022/10/15 04:19:09;;;;;;;73.60;17.87;;;13.90;99.90;;;;;;5019121;28;20432;-83
2022/10/15 04:21:35;;;;;;;73.47;18.33;;;14.00;99.90;;;;;;5021055;28;20174;-83
2022/10/15 04:24:00;;;;;;;73.13;20.17;;;14.00;99.90;;;;;;5021304;28;20257;-83
2022/10/15 04:26:26;;;;;;;71.90;16.80;;;14.00;99.90;;;;;;5020663;28;20625;-83
2022/10/15 04:28:52;;;;;;;74.83;18.00;;;14.00;99.90;;;;;;5019641;28;20659;-83
2022/10/15 04:31:17;;;;;;;72.17;15.27;;;13.90;99.90;;;;;;5020962;28;20170;-83
2022/10/15 04:33:43;;;;;;;70.40;11.60;;;13.90;99.90;;;;;;5021471;28;20185;-83
2022/10/15 04:36:12;;;;;;;71.30;12.30;;;13.80;99.90;;;;;;5020780;28;20657;-84
2022/10/15 04:38:38;;;;;;;71.70;11.07;;;13.80;99.90;;;;;;5020966;28;20193;-83
2022/10/15 04:41:08;;;;;;;70.60;10.80;;;13.80;99.90;;;;;;5020812;28;20397;-83
2022/10/15 04:43:34;;;;;;;72.27;12.00;;;13.70;99.90;;;;;;5019675;28;20245;-83
2022/10/15 04:46:02;;;;;;;69.73;9.83;;;13.60;99.90;;;;;;5020325;28;20939;-83
2022/10/15 04:48:30;;;;;;;74.60;11.20;;;13.60;99.90;;;;;;5020581;28;20425;-83
2022/10/15 04:51:06;;;;;;;69.87;10.70;;;13.50;99.90;;;;;;5020946;28;20425;-83
2022/10/15 04:53:32;;;;;;;70.53;12.10;;;13.50;99.90;;;;;;5021841;28;20452;-83
2022/10/15 04:56:07;;;;;;;71.43;12.43;;;13.40;99.90;;;;;;5021606;28;20821;-83
2022/10/15 04:58:34;;;;;;;72.10;13.43;;;13.40;99.90;;;;;;5022574;28;20931;-83
2022/10/15 05:01:05;;;;;;;75.40;16.47;;;13.40;99.90;;;;;;5023090;28;20405;-83
2022/10/15 05:03:32;;;;;;;73.97;16.63;;;13.40;99.90;;;;;;5022736;28;20381;-83
2022/10/15 05:06:06;;;;;;;72.43;17.30;;;13.40;99.90;;;;;;5020591;28;20471;-83
2022/10/15 05:08:34;;;;;;;71.80;15.67;;;13.50;99.90;;;;;;5021699;28;20835;-83
2022/10/15 05:11:08;;;;;;;71.67;16.63;;;13.50;99.90;;;;;;5092005;22;20415;-83
2022/10/15 05:13:34;;;;;;;72.47;18.57;;;13.50;99.90;;;;;;5029962;28;20463;-83
2022/10/15 05:16:09;;;;;;;72.23;15.30;;;13.60;99.90;;;;;;5048376;28;20479;-83
2022/10/15 05:18:34;;;;;;;76.23;17.00;;;13.60;99.90;;;;;;5029573;28;20439;-83
2022/10/15 05:21:01;;;;;;;74.10;19.30;;;13.60;99.90;;;;;;5048424;28;20396;-83
2022/10/15 05:23:26;;;;;;;72.83;18.43;;;13.60;99.90;;;;;;5047054;28;20188;-83
2022/10/15 05:25:52;;;;;;;73.90;17.20;;;13.60;99.90;;;;;;5047392;28;20408;-83
2022/10/15 05:28:18;;;;;;;72.57;18.80;;;13.60;99.90;;;;;;5046508;28;20663;-82
2022/10/15 05:30:44;;;;;;;73.77;18.60;;;13.70;99.90;;;;;;5045286;28;20201;-83
2022/10/15 05:33:10;;;;;;;73.57;20.13;;;13.70;99.90;;;;;;5028871;28;20177;-82
2022/10/15 05:35:36;;;;;;;73.27;18.17;;;13.70;99.90;;;;;;5047360;28;20381;-83
2022/10/15 05:38:03;;;;;;;73.40;21.37;;;13.60;99.90;;;;;;5045430;28;20420;-83
2022/10/15 05:40:29;;;;;;;71.53;13.23;;;13.60;99.90;;;;;;5047733;28;20434;-83
2022/10/15 05:42:55;;;;;;;71.30;15.93;;;13.70;99.90;;;;;;5027306;28;20465;-83
2022/10/15 05:45:21;;;;;;;70.97;16.87;;;13.70;99.90;;;;;;5029128;28;20439;-83
2022/10/15 05:47:47;;;;;;;73.37;14.63;;;13.60;99.90;;;;;;5028610;28;20208;-83
2022/10/15 05:50:13;;;;;;;71.17;16.53;;;13.60;99.90;;;;;;5028791;28;20419;-83
2022/10/15 05:52:39;;;;;;;71.83;16.03;;;13.60;99.90;;;;;;5045930;28;20180;-81
2022/10/15 05:55:05;;;;;;;69.30;13.00;;;13.60;99.90;;;;;;5045159;28;20451;-83
2022/10/15 05:57:31;;;;;;;69.80;12.30;;;13.60;99.90;;;;;;5044393;28;20195;-81
2022/10/15 05:59:56;;;;;;;68.90;10.77;;;13.50;99.90;;;;;;5025837;28;20428;-81
2022/10/15 06:02:22;;;;;;;74.27;11.53;;;13.50;99.90;;;;;;5044075;28;20165;-83
2022/10/15 06:04:52;;;;;;;69.30;11.60;;;13.50;99.90;;;;;;5044795;28;20200;-83
2022/10/15 06:07:19;;;;;;;69.87;11.30;;;13.40;99.90;;;;;;5029812;28;20180;-83
2022/10/15 06:09:44;;;;;;;69.17;11.70;;;13.30;99.90;;;;;;5047367;28;20419;-85
2022/10/15 06:12:10;;;;;;;70.47;17.37;;;13.30;99.90;;;;;;5046794;28;20424;-84
2022/10/15 06:14:35;;;;;;;71.97;17.77;;;13.30;99.90;;;;;;5045893;28;20195;-84
2022/10/15 06:17:01;;;;;;;70.17;16.80;;;13.30;99.90;;;;;;5028688;28;20371;-85
2022/10/15 06:19:27;;;;;;;73.67;15.20;;;13.30;99.90;;;;;;5046902;28;20161;-88
2022/10/15 06:21:52;;;;;;;69.97;11.80;;;13.30;99.90;;;;;;5029380;28;20252;-88
2022/10/15 06:24:18;;;;;;;70.50;13.90;;;13.30;99.90;;;;;;5029558;28;20782;-88
2022/10/15 06:26:44;;;;;;;69.17;14.47;;;13.30;99.90;;;;;;5046731;28;20162;-88
2022/10/15 06:29:10;;;;;;;73.17;13.97;;;13.30;99.90;;;;;;5046070;28;20236;-88
2022/10/15 06:31:35;;;;;;;70.10;14.67;;;13.30;99.90;;;;;;5046349;28;20169;-89
2022/10/15 06:34:01;;;;;;;71.73;15.80;;;13.20;99.90;;;;;;5045496;28;20189;-87
2022/10/15 06:36:27;;;;;;;71.50;17.90;;;13.20;99.90;;;;;;5043651;28;20161;-88
2022/10/15 06:38:52;;;;;;;76.20;20.97;;;13.30;99.90;;;;;;5045567;28;20272;-87
2022/10/15 06:41:18;;;;;;;74.20;25.77;;;13.30;99.90;;;;;;5043611;28;20197;-88
2022/10/15 06:43:44;;;;;;;75.60;26.13;;;13.30;99.90;;;;;;5042528;28;20161;-87
2022/10/15 06:46:10;;;;;;;72.67;19.40;;;13.40;99.90;;;;;;5024189;28;20208;-87
2022/10/15 06:48:36;;;;;;;73.87;22.07;;;13.50;99.90;;;;;;5026145;28;20420;-88
2022/10/15 06:51:02;;;;;;;72.60;21.00;;;13.50;99.90;;;;;;5025026;28;20165;-88
2022/10/15 06:53:29;;;;;;;72.93;18.37;;;13.50;99.90;;;;;;5025684;28;20197;-87
2022/10/15 06:56:01;;;;;;;74.00;21.73;;;13.50;99.90;;;;;;5042861;28;20419;-87
2022/10/15 06:58:27;;;;;;;75.63;17.60;;;13.60;99.90;;;;;;5025611;28;20478;-87
2022/10/15 07:01:02;;;;;;;73.80;21.43;;;13.60;99.90;;;;;;5043288;28;20396;-88
2022/10/15 07:03:28;;;;;;;72.40;20.07;;;13.60;99.90;;;;;;5025914;28;20157;-88
2022/10/15 07:05:54;;;;;;;73.30;21.80;;;13.60;99.90;;;;;;5026426;28;20404;-88
2022/10/15 07:08:20;;;;;;;72.40;18.47;;;13.70;99.90;;;;;;5043689;28;20466;-88
2022/10/15 07:10:46;;;;;;;71.80;19.53;;;13.70;99.90;;;;;;5026863;28;20412;-87
2022/10/15 07:13:13;;;;;;;70.67;16.47;;;13.70;99.90;;;;;;5024588;28;20196;-87
2022/10/15 07:15:38;;;;;;;75.67;18.50;;;13.90;99.90;;;;;;5026188;28;20416;-88
2022/10/15 07:18:04;;;;;;;71.70;19.27;;;13.90;99.90;;;;;;5027601;28;20450;-87
2022/10/15 07:20:30;;;;;;;72.20;19.40;;;13.90;99.90;;;;;;5043778;28;20162;-88
2022/10/15 07:23:00;;;;;;;73.87;21.53;;;13.90;99.90;;;;;;5044840;28;20184;-87
2022/10/15 07:25:29;;;;;;;74.80;20.17;;;14.00;99.90;;;;;;5026515;28;20415;-88
2022/10/15 07:27:56;;;;;;;73.57;18.73;;;14.00;99.90;;;;;;5027497;28;20412;-88
2022/10/15 07:30:26;;;;;;;71.00;18.50;;;14.00;99.90;;;;;;5043219;28;20404;-89
2022/10/15 07:32:52;;;;;;;71.07;19.13;;;14.10;99.90;;;;;;5044709;28;20416;-88
2022/10/15 07:35:19;;;;;;;72.20;17.17;;;14.20;99.90;;;;;;5044760;28;20444;-87
2022/10/15 07:37:46;;;;;;;72.17;18.97;;;14.30;99.90;;;;;;5043054;28;20396;-88
2022/10/15 07:40:12;;;;;;;73.13;21.00;;;14.30;99.90;;;;;;5027381;28;20400;-88
2022/10/15 07:42:39;;;;;;;72.43;20.03;;;14.30;99.90;;;;;;5026645;28;20404;-87
2022/10/15 07:45:06;;;;;;;71.80;20.20;;;14.40;99.90;;;;;;5044944;28;20400;-88
2022/10/15 07:47:40;;;;;;;72.13;18.47;;;14.60;99.90;;;;;;5029290;28;20915;-88
2022/10/15 07:50:07;;;;;;;70.23;15.63;;;14.70;99.90;;;;;;5047190;28;20385;-88
2022/10/15 07:52:32;;;;;;;68.00;11.00;;;14.80;99.90;;;;;;5029588;28;20408;-88
2022/10/15 07:54:58;;;;;;;69.23;12.53;;;14.90;99.90;;;;;;5032274;28;20466;-88
2022/10/15 07:57:24;;;;;;;67.20;10.53;;;14.90;99.90;;;;;;5049555;28;20157;-87
2022/10/15 07:59:50;;;;;;;66.50;8.83;;;14.90;99.90;;;;;;5049607;28;20182;-88
2022/10/15 08:02:17;;;;;;;66.70;10.03;;;14.90;99.90;;;;;;5031144;28;20228;-87
2022/10/15 08:04:42;;;;;;;66.30;8.77;;;14.90;99.90;;;;;;5048907;28;20176;-87
2022/10/15 08:07:08;;;;;;;67.60;10.50;;;14.90;99.90;;;;;;5031702;28;20443;-88
2022/10/15 08:09:34;;;;;;;67.00;9.40;;;14.90;99.90;;;;;;5048937;28;20189;-87
2022/10/15 08:12:03;;;;;;;66.93;7.87;;;15.00;99.90;;;;;;5030402;28;20201;-86
2022/10/15 08:14:29;;;;;;;67.50;9.97;;;15.00;99.90;;;;;;5048205;28;20189;-88
2022/10/15 08:16:54;;;;;;;66.07;8.50;;;15.00;99.90;;;;;;5047003;28;20409;-88
2022/10/15 08:19:20;;;;;;;65.67;8.60;;;15.10;99.90;;;;;;5027882;28;20189;-86
2022/10/15 08:21:46;;;;;;;66.50;9.27;;;15.20;99.90;;;;;;5044614;28;20162;-86
2022/10/15 08:24:11;;;;;;;69.90;8.17;;;15.20;99.90;;;;;;5045302;28;20175;-87
2022/10/15 08:26:37;;;;;;;67.97;8.47;;;15.30;99.90;;;;;;5027905;28;20177;-87
2022/10/15 08:29:03;;;;;;;67.20;9.70;;;15.30;99.90;;;;;;5046232;28;20209;-86
2022/10/15 08:31:30;;;;;;;67.70;7.23;;;15.30;99.90;;;;;;5026764;28;20181;-86
2022/10/15 08:33:59;;;;;;;66.20;7.37;;;15.40;99.90;;;;;;5026393;28;20896;-87
2022/10/15 08:36:27;;;;;;;65.70;8.00;;;15.40;99.90;;;;;;5044511;28;20411;-88
2022/10/15 08:38:53;;;;;;;66.00;8.53;;;15.50;99.90;;;;;;5045652;28;20446;-86
2022/10/15 08:41:29;;;;;;;65.50;7.40;;;15.50;99.90;;;;;;5046012;28;20405;-88
2022/10/15 08:43:55;;;;;;;67.63;8.30;;;15.50;99.90;;;;;;5028457;28;20195;-88
2022/10/15 08:46:45;;;;;;;65.90;7.63;;;15.60;99.90;;;;;;5045401;28;20768;-88
2022/10/15 08:49:23;;;;;;;65.63;7.80;;;15.60;99.90;;;;;;5045434;28;20945;-88
2022/10/15 08:51:55;;;;;;;66.37;7.00;;;15.70;99.90;;;;;;5028653;28;20412;-87
2022/10/15 08:54:21;;;;;;;68.13;7.03;;;15.70;99.90;;;;;;5028821;28;20449;-87
2022/10/15 08:56:53;;;;;;;67.10;7.23;;;15.80;99.90;;;;;;5046034;28;20407;-87
2022/10/15 08:59:30;;;;;;;65.50;6.50;;;15.80;99.90;;;;;;5028829;28;20491;-87
2022/10/15 09:01:58;;;;;;;66.20;6.90;;;15.90;99.90;;;;;;5046817;28;20407;-86
2022/10/15 09:04:42;;;;;;;65.27;5.93;;;15.90;99.90;;;;;;5046545;28;20409;-87
2022/10/15 09:07:14;;;;;;;65.37;7.47;;;16.00;99.90;;;;;;5029155;28;20437;-88
2022/10/15 09:10:04;;;;;;;65.30;7.90;;;15.90;99.90;;;;;;5046365;28;20451;-87
2022/10/15 09:12:50;;;;;;;65.73;8.20;;;16.00;99.90;;;;;;5028376;28;20849;-87
2022/10/15 09:15:21;;;;;;;67.67;7.20;;;16.00;99.90;;;;;;5028341;28;20478;-87
2022/10/15 09:17:50;;;;;;;66.10;8.50;;;16.00;99.90;;;;;;5046085;28;20766;-87
2022/10/15 09:20:25;;;;;;;66.40;6.60;;;16.10;99.90;;;;;;5026428;28;20409;-87
2022/10/15 09:23:04;;;;;;;67.10;7.50;;;16.20;99.90;;;;;;5013359;28;20418;-88
2022/10/15 09:25:38;;;;;;;68.20;8.40;;;16.20;99.90;;;;;;5031529;28;20418;-86
2022/10/15 09:28:09;;;;;;;66.90;8.80;;;16.30;99.90;;;;;;5050339;28;20465;-88
2022/10/15 09:30:57;;;;;;;67.00;9.97;;;16.40;99.90;;;;;;5048679;28;20399;-88
2022/10/15 09:33:42;;;;;;;66.90;10.60;;;16.50;99.90;;;;;;5030897;28;20430;-88
2022/10/15 09:36:36;;;;;;;72.90;10.77;;;16.60;99.90;;;;;;5048606;28;20393;-86
2022/10/15 09:39:36;;;;;;;65.70;9.17;;;16.60;99.90;;;;;;5030375;28;20429;-88
2022/10/15 09:42:21;;;;;;;68.07;10.40;;;16.60;99.90;;;;;;5031171;28;20418;-88
2022/10/15 09:44:50;;;;;;;68.27;11.57;;;16.70;99.90;;;;;;5048288;28;20411;-88
2022/10/15 09:47:39;;;;;;;66.60;11.70;;;16.80;99.90;;;;;;5028935;28;20499;-89
2022/10/15 09:50:11;;;;;;;67.80;10.73;;;16.80;99.90;;;;;;5029549;28;20929;-87
2022/10/15 09:53:08;;;;;;;67.43;9.57;;;16.80;99.90;;;;;;5047613;28;20758;-87
2022/10/15 09:55:46;;;;;;;70.63;9.23;;;16.90;99.90;;;;;;5028988;28;20496;-85
2022/10/15 09:58:58;;;;;;;67.00;10.30;;;16.80;99.90;;;;;;5044484;28;20501;-87
2022/10/15 10:01:26;;;;;;;67.03;9.90;;;16.90;99.90;;;;;;5022241;28;20475;-88
2022/10/15 10:04:07;;;;;;;66.43;8.80;;;17.00;99.90;;;;;;5042632;28;20411;-87
2022/10/15 10:06:44;;;;;;;66.10;8.70;;;17.10;99.90;;;;;;5022778;28;20406;-88
2022/10/15 10:09:20;;;;;;;66.27;8.53;;;17.20;99.90;;;;;;5022765;28;20434;-87
2022/10/15 10:11:59;;;;;;;66.80;9.97;;;17.30;99.90;;;;;;5021121;28;20499;-87
2022/10/15 10:14:32;;;;;;;70.20;9.97;;;17.30;99.90;;;;;;5021256;28;20508;-88
2022/10/15 10:17:19;;;;;;;66.90;8.00;;;17.30;99.90;;;;;;5041896;28;20388;-88
2022/10/15 10:20:16;;;;;;;66.30;8.50;;;17.30;99.90;;;;;;5042454;28;20435;-87
2022/10/15 10:22:54;;;;;;;66.17;8.77;;;17.30;99.90;;;;;;5042422;28;20430;-88
2022/10/15 10:25:33;;;;;;;66.10;9.47;;;17.60;99.90;;;;;;5024890;28;20408;-87
2022/10/15 10:28:16;;;;;;;66.80;9.33;;;17.70;99.90;;;;;;5026189;28;20412;-88
2022/10/15 10:30:55;;;;;;;66.90;11.00;;;17.80;99.90;;;;;;5043793;28;20406;-88
2022/10/15 10:33:40;;;;;;;65.87;8.73;;;17.90;99.90;;;;;;5045630;28;20388;-88
2022/10/15 10:36:19;;;;;;;66.67;8.50;;;18.10;99.90;;;;;;5027219;28;20401;-88
2022/10/15 10:39:13;;;;;;;66.50;10.03;;;18.10;99.90;;;;;;5044901;28;20443;-87
2022/10/15 10:41:55;;;;;;;66.40;9.87;;;18.10;99.90;;;;;;5044188;28;20396;-87
2022/10/15 10:44:31;;;;;;;66.50;10.60;;;18.00;99.90;;;;;;5026512;28;20473;-86
2022/10/15 10:47:19;;;;;;;68.70;11.97;;;17.90;99.90;;;;;;5044831;28;20410;-87
2022/10/15 10:49:49;;;;;;;66.73;12.27;;;17.90;99.90;;;;;;5026776;28;20456;-87
2022/10/15 10:52:28;;;;;;;67.80;12.83;;;18.10;99.90;;;;;;5045122;28;20408;-87
2022/10/15 10:55:16;;;;;;;66.80;11.27;;;18.20;99.90;;;;;;5044489;28;20471;-87
2022/10/15 10:57:43;;;;;;;68.70;12.80;;;18.20;99.90;;;;;;5044370;28;20380;-86
2022/10/15 11:00:42;;;;;;;68.67;12.97;;;18.20;99.90;;;;;;5026209;28;20471;-87
2022/10/15 11:03:38;;;;;;;66.17;10.57;;;18.40;99.90;;;;;;5044350;28;20408;-86
2022/10/15 11:06:28;;;;;;;67.13;9.43;;;18.50;99.90;;;;;;5044371;28;20435;-87
2022/10/15 11:09:17;;;;;;;66.30;9.60;;;18.70;99.90;;;;;;5028405;28;20431;-87
2022/10/15 11:11:58;;;;;;;65.70;7.00;;;18.90;99.90;;;;;;5097078;22;20569;-86
2022/10/15 11:14:48;;;;;;;65.43;9.10;;;19.10;99.90;;;;;;5053320;28;20525;-86
2022/10/15 11:17:41;;;;;;;65.80;9.07;;;19.20;99.90;;;;;;5053076;28;20383;-86
2022/10/15 11:20:22;;;;;;;64.87;8.13;;;19.20;99.90;;;;;;5033143;28;20394;-86
2022/10/15 11:23:09;;;;;;;64.77;7.60;;;19.30;99.90;;;;;;5033291;28;20415;-86
2022/10/15 11:25:53;;;;;;;65.00;3.87;;;19.30;99.90;;;;;;5015609;28;20483;-87
2022/10/15 11:28:35;;;;;;;64.40;5.00;;;19.40;99.90;;;;;;5018897;28;20477;-86
2022/10/15 11:31:14;;;;;;;64.10;5.23;;;19.50;99.90;;;;;;5037772;28;20376;-86
2022/10/15 11:33:58;;;;;;;64.20;4.20;;;19.60;99.90;;;;;;5019757;28;20447;-86
2022/10/15 11:37:04;;;;;;;64.37;6.60;;;19.70;99.90;;;;;;5036980;28;20379;-86
2022/10/15 11:39:45;;;;;;;65.60;7.53;;;19.80;99.90;;;;;;5036995;28;20419;-87
2022/10/15 11:42:39;;;;;;;65.10;7.10;;;20.10;99.90;;;;;;5019041;28;20756;-86
2022/10/15 11:45:14;;;;;;;65.30;6.03;;;20.00;99.90;;;;;;5035507;28;20503;-86
2022/10/15 11:48:01;;;;;;;64.27;5.03;;;20.00;99.90;;;;;;5019301;28;20419;-86
2022/10/15 11:50:39;;;;;;;66.20;5.53;;;19.90;99.90;;;;;;5018954;28;20404;-86
2022/10/15 11:53:40;;;;;;;64.30;4.17;;;19.90;99.90;;;;;;5036882;28;20989;-86
2022/10/15 11:56:15;;;;;;;64.80;5.90;;;19.70;99.90;;;;;;4975742;28;20509;-86
2022/10/15 11:58:58;;;;;;;64.07;4.50;;;19.70;99.90;;;;;;5028339;28;20435;-86
2022/10/15 12:01:39;;;;;;;63.27;3.67;;;19.60;99.90;;;;;;5036974;28;20468;-86
2022/10/15 12:04:23;;;;;;;63.97;4.60;;;19.40;99.90;;;;;;5036724;28;20878;-86
2022/10/15 12:06:54;;;;;;;63.73;4.20;;;19.30;99.90;;;;;;5036435;28;20434;-86
2022/10/15 12:09:35;;;;;;;63.57;4.30;;;19.40;99.90;;;;;;5036503;28;20427;-86
2022/10/15 12:12:24;;;;;;;63.60;4.17;;;19.40;99.90;;;;;;5020237;28;20428;-86
2022/10/15 12:15:18;;;;;;;63.87;4.07;;;19.50;99.90;;;;;;5019428;28;20467;-86
2022/10/15 12:17:47;;;;;;;63.83;4.57;;;19.60;99.90;;;;;;5008317;28;20416;-86
2022/10/15 12:20:16;;;;;;;63.43;3.87;;;19.70;99.90;;;;;;5036130;28;20490;-86
2022/10/15 12:23:02;;;;;;;63.90;4.27;;;19.80;99.90;;;;;;5036092;28;20906;-86
2022/10/15 12:25:34;;;;;;;64.57;4.90;;;20.00;99.90;;;;;;5036077;28;20526;-86
2022/10/15 12:28:24;;;;;;;63.67;3.53;;;20.10;99.90;;;;;;5036265;28;20420;-86
2022/10/15 12:30:59;;;;;;;63.53;3.57;;;20.00;99.90;;;;;;5017752;28;20408;-86
2022/10/15 12:33:37;;;;;;;63.47;3.50;;;20.00;99.90;;;;;;5036123;28;20917;-86
2022/10/15 12:36:27;;;;;;;63.77;3.20;;;20.00;99.90;;;;;;5036152;28;20852;-86
2022/10/15 12:38:57;;;;;;;63.53;3.23;;;19.90;99.90;;;;;;5017908;28;20444;-86
2022/10/15 12:41:34;;;;;;;63.77;3.30;;;19.80;99.90;;;;;;5035821;28;20482;-86
2022/10/15 12:44:27;;;;;;;71.10;3.00;;;19.80;99.90;;;;;;5035715;28;20753;-86
2022/10/15 12:46:53;;;;;;;67.60;3.20;;;20.00;99.90;;;;;;5033501;28;20420;-86
2022/10/15 12:49:25;;;;;;;64.60;3.30;;;20.20;99.90;;;;;;5035506;28;20435;-86
2022/10/15 12:51:55;;;;;;;63.77;3.40;;;20.40;99.90;;;;;;5035568;28;20797;-86
2022/10/15 12:54:40;;;;;;;63.60;3.00;;;20.50;99.90;;;;;;5035421;28;20521;-86
2022/10/15 12:57:33;;;;;;;64.27;4.10;;;20.70;99.90;;;;;;5035478;28;20938;-86